sensor_id;sensor_type;location;lat;lon;timestamp;P1;durP1;ratioP1;P2;durP2;ratioP2
77466;SDS011;66564;42.482;25.548;2023-06-04T00:01:21;9.88;;;6.00;;
77466;SDS011;66564;42.482;25.548;2023-06-04T00:03:47;11.88;;;5.55;;
77466;SDS011;66564;42.482;25.548;2023-06-04T00:06:12;7.80;;;5.38;;
77466;SDS011;66564;42.482;25.548;2023-06-04T00:08:38;6.07;;;5.15;;
77466;SDS011;66564;42.482;25.548;2023-06-04T00:11:03;8.50;;;5.80;;
77466;SDS011;66564;42.482;25.548;2023-06-04T00:13:29;7.82;;;5.32;;
77466;SDS011;66564;42.482;25.548;2023-06-04T00:15:55;7.40;;;5.45;;
77466;SDS011;66564;42.482;25.548;2023-06-04T00:18:20;11.50;;;5.85;;
77466;SDS011;66564;42.482;25.548;2023-06-04T00:20:46;11.32;;;5.60;;
77466;SDS011;66564;42.482;25.548;2023-06-04T00:23:11;12.60;;;6.22;;
77466;SDS011;66564;42.482;25.548;2023-06-04T00:25:37;7.57;;;5.25;;
77466;SDS011;66564;42.482;25.548;2023-06-04T00:28:02;8.70;;;5.20;;
77466;SDS011;66564;42.482;25.548;2023-06-04T00:30:28;10.70;;;5.32;;
77466;SDS011;66564;42.482;25.548;2023-06-04T00:32:54;8.32;;;4.93;;
77466;SDS011;66564;42.482;25.548;2023-06-04T00:35:19;8.98;;;5.55;;
77466;SDS011;66564;42.482;25.548;2023-06-04T00:37:45;8.43;;;5.35;;
77466;SDS011;66564;42.482;25.548;2023-06-04T00:40:11;10.20;;;5.80;;
77466;SDS011;66564;42.482;25.548;2023-06-04T00:42:37;9.45;;;6.00;;
77466;SDS011;66564;42.482;25.548;2023-06-04T00:45:03;11.00;;;5.75;;
77466;SDS011;66564;42.482;25.548;2023-06-04T00:47:30;6.60;;;4.95;;
77466;SDS011;66564;42.482;25.548;2023-06-04T00:49:56;8.45;;;5.05;;
77466;SDS011;66564;42.482;25.548;2023-06-04T00:52:23;8.70;;;5.47;;
77466;SDS011;66564;42.482;25.548;2023-06-04T00:54:49;7.65;;;5.05;;
77466;SDS011;66564;42.482;25.548;2023-06-04T00:57:15;6.72;;;5.18;;
77466;SDS011;66564;42.482;25.548;2023-06-04T00:59:41;8.30;;;5.18;;
77466;SDS011;66564;42.482;25.548;2023-06-04T01:02:17;7.60;;;4.80;;
77466;SDS011;66564;42.482;25.548;2023-06-04T01:05:06;7.90;;;4.97;;
77466;SDS011;66564;42.482;25.548;2023-06-04T01:07:45;6.55;;;4.90;;
77466;SDS011;66564;42.482;25.548;2023-06-04T01:10:15;6.95;;;5.43;;
77466;SDS011;66564;42.482;25.548;2023-06-04T01:12:41;11.05;;;5.35;;
77466;SDS011;66564;42.482;25.548;2023-06-04T01:15:07;7.20;;;4.68;;
77466;SDS011;66564;42.482;25.548;2023-06-04T01:17:35;5.82;;;5.13;;
77466;SDS011;66564;42.482;25.548;2023-06-04T01:20:13;8.23;;;4.43;;
77466;SDS011;66564;42.482;25.548;2023-06-04T01:25:34;9.43;;;5.40;;
77466;SDS011;66564;42.482;25.548;2023-06-04T01:28:07;7.53;;;4.82;;
77466;SDS011;66564;42.482;25.548;2023-06-04T01:30:36;7.88;;;5.15;;
77466;SDS011;66564;42.482;25.548;2023-06-04T01:33:08;7.57;;;5.00;;
77466;SDS011;66564;42.482;25.548;2023-06-04T01:35:35;7.57;;;4.90;;
77466;SDS011;66564;42.482;25.548;2023-06-04T01:38:00;7.57;;;5.43;;
77466;SDS011;66564;42.482;25.548;2023-06-04T01:40:26;6.90;;;4.72;;
77466;SDS011;66564;42.482;25.548;2023-06-04T01:42:52;7.00;;;5.32;;
77466;SDS011;66564;42.482;25.548;2023-06-04T01:45:21;8.73;;;5.57;;
77466;SDS011;66564;42.482;25.548;2023-06-04T01:47:47;8.13;;;5.50;;
77466;SDS011;66564;42.482;25.548;2023-06-04T01:50:13;6.72;;;4.70;;
77466;SDS011;66564;42.482;25.548;2023-06-04T01:52:39;7.43;;;5.22;;
77466;SDS011;66564;42.482;25.548;2023-06-04T01:55:08;9.80;;;5.57;;
77466;SDS011;66564;42.482;25.548;2023-06-04T01:57:37;7.22;;;5.65;;
77466;SDS011;66564;42.482;25.548;2023-06-04T02:00:03;7.40;;;5.57;;
77466;SDS011;66564;42.482;25.548;2023-06-04T02:02:33;9.68;;;5.82;;
77466;SDS011;66564;42.482;25.548;2023-06-04T02:04:58;9.02;;;6.22;;
77466;SDS011;66564;42.482;25.548;2023-06-04T02:07:24;8.55;;;5.43;;
77466;SDS011;66564;42.482;25.548;2023-06-04T02:09:51;8.60;;;6.05;;
77466;SDS011;66564;42.482;25.548;2023-06-04T02:12:16;10.57;;;5.68;;
77466;SDS011;66564;42.482;25.548;2023-06-04T02:14:42;7.07;;;5.60;;
77466;SDS011;66564;42.482;25.548;2023-06-04T02:17:10;8.63;;;5.53;;
77466;SDS011;66564;42.482;25.548;2023-06-04T02:19:44;11.63;;;6.32;;
77466;SDS011;66564;42.482;25.548;2023-06-04T02:22:14;12.05;;;5.82;;
77466;SDS011;66564;42.482;25.548;2023-06-04T02:24:40;7.40;;;5.78;;
77466;SDS011;66564;42.482;25.548;2023-06-04T02:27:07;8.65;;;5.85;;
77466;SDS011;66564;42.482;25.548;2023-06-04T02:29:33;10.73;;;5.93;;
77466;SDS011;66564;42.482;25.548;2023-06-04T02:31:59;9.43;;;6.25;;
77466;SDS011;66564;42.482;25.548;2023-06-04T02:34:25;8.63;;;5.90;;
77466;SDS011;66564;42.482;25.548;2023-06-04T02:36:51;9.45;;;5.97;;
77466;SDS011;66564;42.482;25.548;2023-06-04T02:39:17;7.43;;;5.57;;
77466;SDS011;66564;42.482;25.548;2023-06-04T02:41:44;9.48;;;6.55;;
77466;SDS011;66564;42.482;25.548;2023-06-04T02:44:09;8.02;;;5.85;;
77466;SDS011;66564;42.482;25.548;2023-06-04T02:46:35;10.18;;;6.20;;
77466;SDS011;66564;42.482;25.548;2023-06-04T02:49:00;10.38;;;6.57;;
77466;SDS011;66564;42.482;25.548;2023-06-04T02:51:26;11.70;;;6.00;;
77466;SDS011;66564;42.482;25.548;2023-06-04T02:53:53;7.38;;;5.70;;
77466;SDS011;66564;42.482;25.548;2023-06-04T02:56:19;10.50;;;6.38;;
77466;SDS011;66564;42.482;25.548;2023-06-04T02:58:52;8.52;;;6.10;;
77466;SDS011;66564;42.482;25.548;2023-06-04T03:01:22;11.50;;;6.45;;
77466;SDS011;66564;42.482;25.548;2023-06-04T03:03:48;7.47;;;5.90;;
77466;SDS011;66564;42.482;25.548;2023-06-04T03:06:15;8.60;;;6.30;;
77466;SDS011;66564;42.482;25.548;2023-06-04T03:08:41;17.27;;;7.00;;
77466;SDS011;66564;42.482;25.548;2023-06-04T03:11:07;99.45;;;15.00;;
77466;SDS011;66564;42.482;25.548;2023-06-04T03:13:33;18.02;;;6.88;;
77466;SDS011;66564;42.482;25.548;2023-06-04T03:15:59;7.47;;;5.70;;
77466;SDS011;66564;42.482;25.548;2023-06-04T03:18:27;10.77;;;6.05;;
77466;SDS011;66564;42.482;25.548;2023-06-04T03:20:53;15.73;;;6.13;;
77466;SDS011;66564;42.482;25.548;2023-06-04T03:23:19;11.75;;;5.85;;
77466;SDS011;66564;42.482;25.548;2023-06-04T03:25:45;9.20;;;6.18;;
77466;SDS011;66564;42.482;25.548;2023-06-04T03:28:11;8.15;;;5.55;;
77466;SDS011;66564;42.482;25.548;2023-06-04T03:30:37;10.60;;;8.02;;
77466;SDS011;66564;42.482;25.548;2023-06-04T03:33:02;8.50;;;5.65;;
77466;SDS011;66564;42.482;25.548;2023-06-04T03:35:28;8.57;;;6.03;;
77466;SDS011;66564;42.482;25.548;2023-06-04T03:37:54;8.18;;;5.38;;
77466;SDS011;66564;42.482;25.548;2023-06-04T03:40:20;7.82;;;5.55;;
77466;SDS011;66564;42.482;25.548;2023-06-04T03:42:45;8.57;;;6.22;;
77466;SDS011;66564;42.482;25.548;2023-06-04T03:45:11;8.68;;;5.82;;
77466;SDS011;66564;42.482;25.548;2023-06-04T03:47:37;9.70;;;5.82;;
77466;SDS011;66564;42.482;25.548;2023-06-04T03:50:04;9.07;;;5.43;;
77466;SDS011;66564;42.482;25.548;2023-06-04T03:52:30;9.32;;;6.15;;
77466;SDS011;66564;42.482;25.548;2023-06-04T03:54:56;10.73;;;6.18;;
77466;SDS011;66564;42.482;25.548;2023-06-04T03:57:22;11.07;;;5.80;;
77466;SDS011;66564;42.482;25.548;2023-06-04T03:59:47;10.32;;;5.88;;
77466;SDS011;66564;42.482;25.548;2023-06-04T04:02:13;9.45;;;5.63;;
77466;SDS011;66564;42.482;25.548;2023-06-04T04:04:39;9.98;;;7.22;;
77466;SDS011;66564;42.482;25.548;2023-06-04T04:07:05;6.45;;;5.38;;
77466;SDS011;66564;42.482;25.548;2023-06-04T04:09:31;8.68;;;5.43;;
77466;SDS011;66564;42.482;25.548;2023-06-04T04:11:56;10.15;;;5.63;;
77466;SDS011;66564;42.482;25.548;2023-06-04T04:14:22;7.45;;;6.22;;
77466;SDS011;66564;42.482;25.548;2023-06-04T04:16:47;6.43;;;5.57;;
77466;SDS011;66564;42.482;25.548;2023-06-04T04:19:13;8.45;;;6.20;;
77466;SDS011;66564;42.482;25.548;2023-06-04T04:21:39;12.05;;;5.95;;
77466;SDS011;66564;42.482;25.548;2023-06-04T04:24:05;8.00;;;5.85;;
77466;SDS011;66564;42.482;25.548;2023-06-04T04:26:30;8.02;;;5.50;;
77466;SDS011;66564;42.482;25.548;2023-06-04T04:28:59;10.68;;;5.57;;
77466;SDS011;66564;42.482;25.548;2023-06-04T04:33:51;11.15;;;5.95;;
77466;SDS011;66564;42.482;25.548;2023-06-04T04:36:17;9.55;;;5.78;;
77466;SDS011;66564;42.482;25.548;2023-06-04T04:38:43;10.00;;;5.78;;
77466;SDS011;66564;42.482;25.548;2023-06-04T04:41:10;11.70;;;6.20;;
77466;SDS011;66564;42.482;25.548;2023-06-04T04:43:36;12.00;;;5.97;;
77466;SDS011;66564;42.482;25.548;2023-06-04T04:46:04;9.95;;;6.47;;
77466;SDS011;66564;42.482;25.548;2023-06-04T04:48:30;11.40;;;5.95;;
77466;SDS011;66564;42.482;25.548;2023-06-04T04:50:55;9.10;;;6.15;;
77466;SDS011;66564;42.482;25.548;2023-06-04T04:53:21;9.30;;;6.07;;
77466;SDS011;66564;42.482;25.548;2023-06-04T04:55:47;9.68;;;6.95;;
77466;SDS011;66564;42.482;25.548;2023-06-04T04:58:13;9.63;;;6.63;;
77466;SDS011;66564;42.482;25.548;2023-06-04T05:00:39;9.93;;;6.53;;
77466;SDS011;66564;42.482;25.548;2023-06-04T05:03:05;9.25;;;6.88;;
77466;SDS011;66564;42.482;25.548;2023-06-04T05:05:31;13.27;;;6.28;;
77466;SDS011;66564;42.482;25.548;2023-06-04T05:07:57;13.30;;;6.78;;
77466;SDS011;66564;42.482;25.548;2023-06-04T05:10:23;8.40;;;6.82;;
77466;SDS011;66564;42.482;25.548;2023-06-04T05:12:52;11.70;;;6.00;;
77466;SDS011;66564;42.482;25.548;2023-06-04T05:15:18;20.05;;;7.00;;
77466;SDS011;66564;42.482;25.548;2023-06-04T05:17:44;8.45;;;6.47;;
77466;SDS011;66564;42.482;25.548;2023-06-04T05:20:12;8.50;;;6.25;;
77466;SDS011;66564;42.482;25.548;2023-06-04T05:28:14;8.85;;;7.15;;
77466;SDS011;66564;42.482;25.548;2023-06-04T05:30:39;7.82;;;6.43;;
77466;SDS011;66564;42.482;25.548;2023-06-04T05:33:06;10.65;;;6.80;;
77466;SDS011;66564;42.482;25.548;2023-06-04T05:35:36;15.95;;;7.18;;
77466;SDS011;66564;42.482;25.548;2023-06-04T05:38:06;9.85;;;6.75;;
77466;SDS011;66564;42.482;25.548;2023-06-04T05:40:31;10.57;;;6.95;;
77466;SDS011;66564;42.482;25.548;2023-06-04T05:42:57;8.27;;;6.70;;
77466;SDS011;66564;42.482;25.548;2023-06-04T05:45:23;10.52;;;6.57;;
77466;SDS011;66564;42.482;25.548;2023-06-04T05:47:48;9.73;;;7.85;;
77466;SDS011;66564;42.482;25.548;2023-06-04T05:50:14;7.75;;;6.55;;
77466;SDS011;66564;42.482;25.548;2023-06-04T05:52:39;10.30;;;7.22;;
77466;SDS011;66564;42.482;25.548;2023-06-04T05:55:05;12.18;;;7.25;;
77466;SDS011;66564;42.482;25.548;2023-06-04T05:57:34;8.48;;;6.20;;
77466;SDS011;66564;42.482;25.548;2023-06-04T05:59:59;9.30;;;6.70;;
77466;SDS011;66564;42.482;25.548;2023-06-04T06:02:25;10.55;;;6.55;;
77466;SDS011;66564;42.482;25.548;2023-06-04T06:04:54;8.60;;;6.25;;
77466;SDS011;66564;42.482;25.548;2023-06-04T06:07:19;11.73;;;6.95;;
77466;SDS011;66564;42.482;25.548;2023-06-04T06:09:45;11.07;;;6.55;;
77466;SDS011;66564;42.482;25.548;2023-06-04T06:12:17;10.68;;;7.10;;
77466;SDS011;66564;42.482;25.548;2023-06-04T06:14:43;16.70;;;8.77;;
77466;SDS011;66564;42.482;25.548;2023-06-04T06:17:08;12.80;;;7.65;;
77466;SDS011;66564;42.482;25.548;2023-06-04T06:19:36;10.57;;;7.15;;
77466;SDS011;66564;42.482;25.548;2023-06-04T06:22:02;7.95;;;5.82;;
77466;SDS011;66564;42.482;25.548;2023-06-04T06:24:28;8.40;;;6.50;;
77466;SDS011;66564;42.482;25.548;2023-06-04T06:26:54;10.00;;;5.65;;
77466;SDS011;66564;42.482;25.548;2023-06-04T06:29:23;10.70;;;6.38;;
77466;SDS011;66564;42.482;25.548;2023-06-04T06:31:49;7.35;;;6.03;;
77466;SDS011;66564;42.482;25.548;2023-06-04T06:34:14;9.40;;;6.28;;
77466;SDS011;66564;42.482;25.548;2023-06-04T06:36:40;15.43;;;7.07;;
77466;SDS011;66564;42.482;25.548;2023-06-04T06:39:05;8.32;;;6.30;;
77466;SDS011;66564;42.482;25.548;2023-06-04T06:41:31;12.32;;;7.43;;
77466;SDS011;66564;42.482;25.548;2023-06-04T06:43:57;9.35;;;6.70;;
77466;SDS011;66564;42.482;25.548;2023-06-04T06:46:23;9.52;;;6.30;;
77466;SDS011;66564;42.482;25.548;2023-06-04T07:14:42;11.50;;;7.00;;
77466;SDS011;66564;42.482;25.548;2023-06-04T07:17:20;8.75;;;6.95;;
77466;SDS011;66564;42.482;25.548;2023-06-04T07:19:45;12.82;;;6.53;;
77466;SDS011;66564;42.482;25.548;2023-06-04T07:22:11;8.95;;;6.15;;
77466;SDS011;66564;42.482;25.548;2023-06-04T07:24:36;12.82;;;7.32;;
77466;SDS011;66564;42.482;25.548;2023-06-04T07:27:09;9.75;;;7.30;;
77466;SDS011;66564;42.482;25.548;2023-06-04T07:29:35;12.35;;;7.22;;
77466;SDS011;66564;42.482;25.548;2023-06-04T07:32:01;12.18;;;7.85;;
77466;SDS011;66564;42.482;25.548;2023-06-04T07:34:26;17.83;;;9.38;;
77466;SDS011;66564;42.482;25.548;2023-06-04T07:36:52;15.25;;;9.93;;
77466;SDS011;66564;42.482;25.548;2023-06-04T07:39:17;12.02;;;9.52;;
77466;SDS011;66564;42.482;25.548;2023-06-04T07:41:43;14.30;;;9.45;;
77466;SDS011;66564;42.482;25.548;2023-06-04T07:44:08;17.00;;;10.40;;
77466;SDS011;66564;42.482;25.548;2023-06-04T07:46:34;15.38;;;10.68;;
77466;SDS011;66564;42.482;25.548;2023-06-04T07:49:00;13.35;;;10.38;;
77466;SDS011;66564;42.482;25.548;2023-06-04T07:51:25;15.60;;;11.30;;
77466;SDS011;66564;42.482;25.548;2023-06-04T07:53:51;18.83;;;12.02;;
77466;SDS011;66564;42.482;25.548;2023-06-04T07:56:16;16.20;;;11.85;;
77466;SDS011;66564;42.482;25.548;2023-06-04T07:58:43;20.38;;;14.45;;
77466;SDS011;66564;42.482;25.548;2023-06-04T08:01:10;19.17;;;15.13;;
77466;SDS011;66564;42.482;25.548;2023-06-04T08:03:35;15.60;;;11.80;;
77466;SDS011;66564;42.482;25.548;2023-06-04T08:06:02;20.25;;;12.23;;
77466;SDS011;66564;42.482;25.548;2023-06-04T08:08:27;25.33;;;13.05;;
77466;SDS011;66564;42.482;25.548;2023-06-04T08:10:53;16.05;;;11.95;;
77466;SDS011;66564;42.482;25.548;2023-06-04T08:13:18;15.73;;;12.18;;
77466;SDS011;66564;42.482;25.548;2023-06-04T08:15:45;15.77;;;11.30;;
77466;SDS011;66564;42.482;25.548;2023-06-04T08:18:12;16.67;;;11.88;;
77466;SDS011;66564;42.482;25.548;2023-06-04T08:20:38;32.20;;;12.02;;
77466;SDS011;66564;42.482;25.548;2023-06-04T08:23:04;16.85;;;10.68;;
77466;SDS011;66564;42.482;25.548;2023-06-04T08:25:29;16.38;;;11.27;;
77466;SDS011;66564;42.482;25.548;2023-06-04T08:27:56;14.30;;;11.55;;
77466;SDS011;66564;42.482;25.548;2023-06-04T08:30:22;13.30;;;10.25;;
77466;SDS011;66564;42.482;25.548;2023-06-04T08:32:48;11.85;;;9.95;;
77466;SDS011;66564;42.482;25.548;2023-06-04T08:35:14;16.45;;;11.05;;
77466;SDS011;66564;42.482;25.548;2023-06-04T08:37:39;12.63;;;10.70;;
77466;SDS011;66564;42.482;25.548;2023-06-04T08:40:05;11.43;;;9.32;;
77466;SDS011;66564;42.482;25.548;2023-06-04T08:42:37;16.45;;;9.35;;
77466;SDS011;66564;42.482;25.548;2023-06-04T08:45:07;15.25;;;10.68;;
77466;SDS011;66564;42.482;25.548;2023-06-04T08:47:36;12.20;;;9.68;;
77466;SDS011;66564;42.482;25.548;2023-06-04T08:50:03;13.57;;;9.52;;
77466;SDS011;66564;42.482;25.548;2023-06-04T08:52:32;13.15;;;9.57;;
77466;SDS011;66564;42.482;25.548;2023-06-04T08:54:57;10.55;;;9.07;;
77466;SDS011;66564;42.482;25.548;2023-06-04T08:57:24;13.45;;;9.63;;
77466;SDS011;66564;42.482;25.548;2023-06-04T08:59:50;14.02;;;10.07;;
77466;SDS011;66564;42.482;25.548;2023-06-04T09:02:16;17.05;;;10.45;;
77466;SDS011;66564;42.482;25.548;2023-06-04T09:04:42;11.85;;;9.27;;
77466;SDS011;66564;42.482;25.548;2023-06-04T09:07:10;10.68;;;8.50;;
77466;SDS011;66564;42.482;25.548;2023-06-04T09:09:38;12.77;;;9.65;;
77466;SDS011;66564;42.482;25.548;2023-06-04T09:12:08;15.10;;;10.02;;
77466;SDS011;66564;42.482;25.548;2023-06-04T09:14:36;14.18;;;10.75;;
77466;SDS011;66564;42.482;25.548;2023-06-04T09:17:01;11.85;;;9.38;;
77466;SDS011;66564;42.482;25.548;2023-06-04T09:19:27;13.48;;;9.60;;
77466;SDS011;66564;42.482;25.548;2023-06-04T09:21:54;11.27;;;8.60;;
77466;SDS011;66564;42.482;25.548;2023-06-04T09:24:21;11.40;;;8.25;;
77466;SDS011;66564;42.482;25.548;2023-06-04T09:26:49;12.25;;;8.68;;
77466;SDS011;66564;42.482;25.548;2023-06-04T09:29:15;14.20;;;9.35;;
77466;SDS011;66564;42.482;25.548;2023-06-04T09:31:44;11.35;;;8.50;;
77466;SDS011;66564;42.482;25.548;2023-06-04T09:34:11;13.35;;;9.25;;
77466;SDS011;66564;42.482;25.548;2023-06-04T09:36:37;13.40;;;9.10;;
77466;SDS011;66564;42.482;25.548;2023-06-04T09:39:04;10.73;;;8.73;;
77466;SDS011;66564;42.482;25.548;2023-06-04T09:41:41;13.15;;;9.38;;
77466;SDS011;66564;42.482;25.548;2023-06-04T09:44:06;12.93;;;8.55;;
77466;SDS011;66564;42.482;25.548;2023-06-04T09:46:35;12.95;;;8.57;;
77466;SDS011;66564;42.482;25.548;2023-06-04T09:49:02;14.55;;;8.18;;
77466;SDS011;66564;42.482;25.548;2023-06-04T09:51:29;10.50;;;8.00;;
77466;SDS011;66564;42.482;25.548;2023-06-04T09:53:59;11.82;;;8.38;;
77466;SDS011;66564;42.482;25.548;2023-06-04T09:56:26;13.48;;;8.30;;
77466;SDS011;66564;42.482;25.548;2023-06-04T09:58:57;11.95;;;8.70;;
77466;SDS011;66564;42.482;25.548;2023-06-04T10:01:28;9.98;;;7.22;;
77466;SDS011;66564;42.482;25.548;2023-06-04T10:03:55;9.05;;;6.65;;
77466;SDS011;66564;42.482;25.548;2023-06-04T10:06:25;9.20;;;7.55;;
77466;SDS011;66564;42.482;25.548;2023-06-04T10:08:52;11.27;;;7.18;;
77466;SDS011;66564;42.482;25.548;2023-06-04T10:11:30;11.70;;;7.55;;
77466;SDS011;66564;42.482;25.548;2023-06-04T10:14:02;10.88;;;7.82;;
77466;SDS011;66564;42.482;25.548;2023-06-04T10:16:32;11.50;;;8.15;;
77466;SDS011;66564;42.482;25.548;2023-06-04T10:18:58;11.45;;;7.78;;
77466;SDS011;66564;42.482;25.548;2023-06-04T10:21:26;10.70;;;7.97;;
77466;SDS011;66564;42.482;25.548;2023-06-04T10:23:51;11.93;;;7.50;;
77466;SDS011;66564;42.482;25.548;2023-06-04T10:26:17;10.93;;;8.73;;
77466;SDS011;66564;42.482;25.548;2023-06-04T10:28:43;12.85;;;8.52;;
77466;SDS011;66564;42.482;25.548;2023-06-04T10:31:09;11.15;;;8.52;;
77466;SDS011;66564;42.482;25.548;2023-06-04T10:33:35;13.70;;;8.18;;
77466;SDS011;66564;42.482;25.548;2023-06-04T10:36:15;11.00;;;7.65;;
77466;SDS011;66564;42.482;25.548;2023-06-04T10:38:49;10.95;;;8.07;;
77466;SDS011;66564;42.482;25.548;2023-06-04T10:41:16;13.27;;;8.50;;
77466;SDS011;66564;42.482;25.548;2023-06-04T10:43:43;9.55;;;7.75;;
77466;SDS011;66564;42.482;25.548;2023-06-04T10:46:13;11.43;;;8.23;;
77466;SDS011;66564;42.482;25.548;2023-06-04T10:48:47;11.07;;;8.32;;
77466;SDS011;66564;42.482;25.548;2023-06-04T10:51:13;9.95;;;7.97;;
77466;SDS011;66564;42.482;25.548;2023-06-04T10:53:39;14.52;;;8.50;;
77466;SDS011;66564;42.482;25.548;2023-06-04T10:56:04;10.35;;;8.13;;
77466;SDS011;66564;42.482;25.548;2023-06-04T10:58:33;13.73;;;8.93;;
77466;SDS011;66564;42.482;25.548;2023-06-04T11:01:00;9.48;;;7.88;;
77466;SDS011;66564;42.482;25.548;2023-06-04T11:03:34;11.27;;;7.30;;
77466;SDS011;66564;42.482;25.548;2023-06-04T11:06:01;9.75;;;7.78;;
77466;SDS011;66564;42.482;25.548;2023-06-04T11:08:28;11.50;;;7.65;;
77466;SDS011;66564;42.482;25.548;2023-06-04T11:10:55;10.68;;;7.35;;
77466;SDS011;66564;42.482;25.548;2023-06-04T11:13:24;11.38;;;7.60;;
77466;SDS011;66564;42.482;25.548;2023-06-04T11:15:50;10.85;;;7.72;;
77466;SDS011;66564;42.482;25.548;2023-06-04T11:18:17;10.30;;;7.90;;
77466;SDS011;66564;42.482;25.548;2023-06-04T11:20:46;13.75;;;9.45;;
77466;SDS011;66564;42.482;25.548;2023-06-04T11:23:13;13.98;;;8.48;;
77466;SDS011;66564;42.482;25.548;2023-06-04T11:25:40;11.60;;;8.38;;
77466;SDS011;66564;42.482;25.548;2023-06-04T11:28:08;12.43;;;8.27;;
77466;SDS011;66564;42.482;25.548;2023-06-04T11:30:38;11.60;;;7.78;;
77466;SDS011;66564;42.482;25.548;2023-06-04T11:33:04;12.18;;;6.95;;
77466;SDS011;66564;42.482;25.548;2023-06-04T11:35:31;10.35;;;7.35;;
77466;SDS011;66564;42.482;25.548;2023-06-04T11:38:04;11.77;;;7.18;;
77466;SDS011;66564;42.482;25.548;2023-06-04T11:40:30;8.65;;;6.97;;
77466;SDS011;66564;42.482;25.548;2023-06-04T11:42:55;8.57;;;6.75;;
77466;SDS011;66564;42.482;25.548;2023-06-04T11:45:22;8.60;;;6.28;;
77466;SDS011;66564;42.482;25.548;2023-06-04T11:47:48;10.07;;;6.85;;
77466;SDS011;66564;42.482;25.548;2023-06-04T11:50:14;10.10;;;6.38;;
77466;SDS011;66564;42.482;25.548;2023-06-04T11:52:41;9.65;;;6.05;;
77466;SDS011;66564;42.482;25.548;2023-06-04T11:55:08;8.75;;;5.82;;
77466;SDS011;66564;42.482;25.548;2023-06-04T11:57:35;10.18;;;6.45;;
77466;SDS011;66564;42.482;25.548;2023-06-04T12:00:02;16.98;;;7.05;;
77466;SDS011;66564;42.482;25.548;2023-06-04T12:02:29;11.63;;;6.15;;
77466;SDS011;66564;42.482;25.548;2023-06-04T12:04:55;9.27;;;6.45;;
77466;SDS011;66564;42.482;25.548;2023-06-04T12:07:21;8.55;;;6.05;;
77466;SDS011;66564;42.482;25.548;2023-06-04T12:09:49;8.63;;;6.68;;
77466;SDS011;66564;42.482;25.548;2023-06-04T12:12:21;9.13;;;6.00;;
77466;SDS011;66564;42.482;25.548;2023-06-04T12:14:57;10.63;;;6.88;;
77466;SDS011;66564;42.482;25.548;2023-06-04T12:17:23;9.52;;;6.13;;
77466;SDS011;66564;42.482;25.548;2023-06-04T12:19:50;9.57;;;6.90;;
77466;SDS011;66564;42.482;25.548;2023-06-04T12:22:16;7.97;;;6.55;;
77466;SDS011;66564;42.482;25.548;2023-06-04T12:24:52;13.27;;;7.38;;
77466;SDS011;66564;42.482;25.548;2023-06-04T12:27:19;13.18;;;7.10;;
77466;SDS011;66564;42.482;25.548;2023-06-04T12:30:02;10.48;;;6.70;;
77466;SDS011;66564;42.482;25.548;2023-06-04T12:32:30;9.95;;;6.75;;
77466;SDS011;66564;42.482;25.548;2023-06-04T12:34:56;10.88;;;6.60;;
77466;SDS011;66564;42.482;25.548;2023-06-04T12:37:22;8.45;;;6.80;;
77466;SDS011;66564;42.482;25.548;2023-06-04T12:39:48;13.20;;;7.25;;
77466;SDS011;66564;42.482;25.548;2023-06-04T12:42:13;10.02;;;6.97;;
77466;SDS011;66564;42.482;25.548;2023-06-04T12:44:39;10.45;;;7.05;;
77466;SDS011;66564;42.482;25.548;2023-06-04T12:47:05;9.43;;;6.63;;
77466;SDS011;66564;42.482;25.548;2023-06-04T12:49:32;9.63;;;6.88;;
77466;SDS011;66564;42.482;25.548;2023-06-04T12:51:57;10.82;;;7.60;;
77466;SDS011;66564;42.482;25.548;2023-06-04T12:54:23;9.32;;;7.22;;
77466;SDS011;66564;42.482;25.548;2023-06-04T12:56:49;12.52;;;7.72;;
77466;SDS011;66564;42.482;25.548;2023-06-04T12:59:16;11.52;;;8.27;;
77466;SDS011;66564;42.482;25.548;2023-06-04T13:01:42;9.32;;;7.28;;
77466;SDS011;66564;42.482;25.548;2023-06-04T13:04:08;12.30;;;8.95;;
77466;SDS011;66564;42.482;25.548;2023-06-04T13:06:34;10.02;;;7.40;;
77466;SDS011;66564;42.482;25.548;2023-06-04T13:09:04;12.52;;;8.25;;
77466;SDS011;66564;42.482;25.548;2023-06-04T13:11:39;12.15;;;7.55;;
77466;SDS011;66564;42.482;25.548;2023-06-04T13:14:07;8.38;;;7.47;;
77466;SDS011;66564;42.482;25.548;2023-06-04T13:16:33;13.30;;;8.77;;
77466;SDS011;66564;42.482;25.548;2023-06-04T13:18:58;14.15;;;7.95;;
77466;SDS011;66564;42.482;25.548;2023-06-04T13:21:24;10.82;;;7.43;;
77466;SDS011;66564;42.482;25.548;2023-06-04T13:23:50;13.05;;;7.93;;
77466;SDS011;66564;42.482;25.548;2023-06-04T13:26:19;11.77;;;8.15;;
77466;SDS011;66564;42.482;25.548;2023-06-04T13:31:10;10.15;;;7.70;;
77466;SDS011;66564;42.482;25.548;2023-06-04T13:33:36;10.00;;;7.40;;
77466;SDS011;66564;42.482;25.548;2023-06-04T13:36:05;13.98;;;7.70;;
77466;SDS011;66564;42.482;25.548;2023-06-04T13:38:31;9.40;;;7.22;;
77466;SDS011;66564;42.482;25.548;2023-06-04T13:40:57;16.77;;;8.15;;
77466;SDS011;66564;42.482;25.548;2023-06-04T13:43:24;12.02;;;8.52;;
77466;SDS011;66564;42.482;25.548;2023-06-04T13:45:50;13.60;;;7.60;;
77466;SDS011;66564;42.482;25.548;2023-06-04T13:48:15;9.05;;;7.50;;
77466;SDS011;66564;42.482;25.548;2023-06-04T13:50:41;8.98;;;7.55;;
77466;SDS011;66564;42.482;25.548;2023-06-04T13:53:08;16.85;;;7.88;;
77466;SDS011;66564;42.482;25.548;2023-06-04T13:55:34;14.20;;;8.27;;
77466;SDS011;66564;42.482;25.548;2023-06-04T13:58:00;15.38;;;8.52;;
77466;SDS011;66564;42.482;25.548;2023-06-04T14:00:25;10.18;;;8.18;;
77466;SDS011;66564;42.482;25.548;2023-06-04T14:02:51;9.07;;;7.38;;
77466;SDS011;66564;42.482;25.548;2023-06-04T14:05:17;13.35;;;8.38;;
77466;SDS011;66564;42.482;25.548;2023-06-04T14:07:43;12.35;;;7.97;;
77466;SDS011;66564;42.482;25.548;2023-06-04T14:10:12;11.77;;;7.97;;
77466;SDS011;66564;42.482;25.548;2023-06-04T14:12:38;11.85;;;7.68;;
77466;SDS011;66564;42.482;25.548;2023-06-04T14:15:06;11.23;;;9.15;;
77466;SDS011;66564;42.482;25.548;2023-06-04T14:17:33;10.93;;;7.93;;
77466;SDS011;66564;42.482;25.548;2023-06-04T14:19:59;11.15;;;8.30;;
77466;SDS011;66564;42.482;25.548;2023-06-04T14:22:25;10.65;;;7.78;;
77466;SDS011;66564;42.482;25.548;2023-06-04T14:24:52;9.15;;;7.18;;
77466;SDS011;66564;42.482;25.548;2023-06-04T14:27:17;8.93;;;7.82;;
77466;SDS011;66564;42.482;25.548;2023-06-04T14:29:43;9.73;;;7.03;;
77466;SDS011;66564;42.482;25.548;2023-06-04T14:32:08;11.90;;;7.32;;
77466;SDS011;66564;42.482;25.548;2023-06-04T14:34:34;15.25;;;7.10;;
77466;SDS011;66564;42.482;25.548;2023-06-04T14:37:00;9.15;;;6.45;;
77466;SDS011;66564;42.482;25.548;2023-06-04T14:39:26;7.82;;;6.32;;
77466;SDS011;66564;42.482;25.548;2023-06-04T14:41:52;8.23;;;6.20;;
77466;SDS011;66564;42.482;25.548;2023-06-04T14:44:18;7.55;;;5.90;;
77466;SDS011;66564;42.482;25.548;2023-06-04T14:46:44;9.88;;;6.75;;
77466;SDS011;66564;42.482;25.548;2023-06-04T14:49:09;7.82;;;6.40;;
77466;SDS011;66564;42.482;25.548;2023-06-04T14:51:35;8.48;;;6.22;;
77466;SDS011;66564;42.482;25.548;2023-06-04T14:54:01;9.15;;;6.10;;
77466;SDS011;66564;42.482;25.548;2023-06-04T14:56:27;8.48;;;6.70;;
77466;SDS011;66564;42.482;25.548;2023-06-04T14:58:54;7.25;;;6.05;;
77466;SDS011;66564;42.482;25.548;2023-06-04T15:01:19;11.38;;;7.20;;
77466;SDS011;66564;42.482;25.548;2023-06-04T15:03:47;8.43;;;7.03;;